Porto-Novo, Benin
Current Conditions -  °F | °C
As of 1:00 PM on Monday 24 Nov 2014 (Local Time) from DBBB Reporting Station
Scattered Clouds Scattered Clouds  
Wind Chill: 84°   Ceiling: Unl
Heat Index: 98°   Visibility: 6mi
Dew Point: 81°   Wind: 9mph
Humidity: 89%   Direction: 220°SW
Pressure: 29.83"   Gusts: NA
Location:  6.48°N, 2.63°E
Report Text: DBBB 241200Z 22008KT 9999 SCT012 FEW030CB 29/27 Q1010 TEMPO TS
Loading
Personal Weather Stations






























Interactive Weather Map New forecast layout! Learn more

10-Day Weather Forecast

Advertisements
Track Severe Weather on mobile